Time;durP1;ratioP1;P1;durP2;ratioP2;P2;SDS_P1;SDS_P2;PMS_P1;PMS_P2;Temp;Humidity;BMP_temperature;BMP_pressure;BME280_temperature;BME280_humidity;BME280_pressure;Samples;Min_cycle;Max_cycle;Signal;HPM_P1;HPM_P2
2022/10/04 00:01:47;;;;;;;3.73;3.30;;;18.50;67.10;19.50;101537.00;;;;4971974;28;20220;-47
2022/10/04 00:04:41;;;;;;;3.27;3.00;;;18.50;67.20;19.50;101537.00;;;;4971935;28;20629;-48
2022/10/04 00:07:12;;;;;;;3.40;3.10;;;18.40;67.00;19.50;101550.00;;;;4971181;28;20209;-47
2022/10/04 00:09:53;;;;;;;3.63;3.03;;;18.40;67.20;19.40;101528.00;;;;4972598;28;20173;-45
2022/10/04 00:12:36;;;;;;;3.20;2.90;;;18.40;67.20;19.40;101530.00;;;;4970843;28;20172;-46
2022/10/04 00:15:16;;;;;;;3.60;3.30;;;18.40;67.20;19.40;101549.00;;;;4986551;28;20674;-47
2022/10/04 00:17:42;;;;;;;3.60;3.30;;;18.40;67.30;19.40;101549.00;;;;4984817;28;20171;-47
2022/10/04 00:20:54;;;;;;;3.20;2.90;;;18.40;67.30;19.40;101547.00;;;;4971725;28;20196;-45
2022/10/04 00:23:23;;;;;;;3.40;3.10;;;18.40;67.30;19.40;101546.00;;;;4971782;28;20164;-47
2022/10/04 00:25:52;;;;;;;3.20;3.00;;;18.40;67.40;19.40;101540.00;;;;4971454;28;20310;-47
2022/10/04 00:28:23;;;;;;;3.33;2.87;;;18.30;67.20;19.40;101541.00;;;;4986729;28;20219;-44
2022/10/04 00:31:07;;;;;;;3.23;2.93;;;18.30;67.20;19.30;101535.00;;;;4971639;28;20263;-45
2022/10/04 00:33:55;;;;;;;3.40;3.10;;;18.30;67.20;19.30;101528.00;;;;4971668;28;20169;-46
2022/10/04 00:36:23;;;;;;;3.20;2.90;;;18.30;67.40;19.30;101535.00;;;;4972614;28;20200;-44
2022/10/04 00:39:04;;;;;;;3.00;2.80;;;18.30;67.60;19.30;101528.00;;;;4971424;28;20263;-46
2022/10/04 00:41:41;;;;;;;3.10;2.90;;;18.30;67.50;19.30;101525.00;;;;4971628;28;20195;-47
2022/10/04 00:44:12;;;;;;;3.23;2.90;;;18.30;67.50;19.30;101531.00;;;;4969797;28;20165;-45
2022/10/04 00:46:38;;;;;;;3.30;3.00;;;18.30;67.40;19.30;101523.00;;;;4985627;28;20205;-45
2022/10/04 00:49:05;;;;;;;3.50;3.20;;;18.20;67.30;19.30;101519.00;;;;4970144;28;20246;-48
2022/10/04 00:52:06;;;;;;;3.30;3.00;;;18.30;67.40;19.30;101512.00;;;;4970199;28;20256;-44
2022/10/04 00:54:40;;;;;;;3.30;2.80;;;18.30;67.50;19.20;101501.00;;;;4949118;28;20216;-44
2022/10/04 00:57:31;;;;;;;3.00;2.77;;;18.20;67.40;19.20;101506.00;;;;4985878;28;20291;-44
2022/10/04 01:00:05;;;;;;;3.27;2.97;;;18.20;67.40;19.20;101487.00;;;;4969586;28;20180;-44
2022/10/04 01:02:45;;;;;;;3.37;3.07;;;18.20;67.40;19.20;101501.00;;;;4971172;28;20638;-45
2022/10/04 01:05:19;;;;;;;2.70;2.50;;;18.20;67.40;19.20;101498.00;;;;4971131;28;20214;-46
2022/10/04 01:08:12;;;;;;;3.00;2.80;;;18.20;67.40;18.70;101490.00;;;;4971014;28;20615;-45
2022/10/04 01:10:47;;;;;;;2.90;2.70;;;18.20;67.50;19.20;101505.00;;;;4946001;28;20215;-45
2022/10/04 01:13:18;;;;;;;3.00;2.80;;;18.20;67.40;19.20;101502.00;;;;4969496;28;20165;-46
2022/10/04 01:15:49;;;;;;;3.23;2.97;;;18.10;67.30;19.20;101499.00;;;;4969796;28;20260;-44
2022/10/04 01:18:28;;;;;;;3.27;2.97;;;18.10;67.40;19.10;101499.00;;;;4969701;28;20165;-46
2022/10/04 01:20:57;;;;;;;2.90;2.70;;;18.10;67.30;19.10;101499.00;;;;4969688;28;20620;-44
2022/10/04 01:23:37;;;;;;;3.00;2.80;;;18.10;67.30;19.10;101505.00;;;;4985385;28;20188;-46
2022/10/04 01:26:04;;;;;;;3.47;2.80;;;18.10;67.30;19.10;101503.00;;;;4970839;28;20216;-46
2022/10/04 01:28:32;;;;;;;2.90;2.70;;;18.10;67.40;19.10;101504.00;;;;4985569;28;20176;-47
2022/10/04 01:30:57;;;;;;;3.57;3.00;;;18.10;67.30;19.10;101498.00;;;;4985939;28;20188;-47
2022/10/04 01:33:24;;;;;;;2.90;2.70;;;18.00;67.20;19.10;101507.00;;;;4985229;28;20173;-45
2022/10/04 01:35:49;;;;;;;2.90;2.70;;;18.10;67.40;19.10;101505.00;;;;4969444;28;20214;-47
2022/10/04 01:38:15;;;;;;;2.93;2.73;;;18.10;67.40;19.10;101504.00;;;;4985534;28;20184;-48
2022/10/04 01:40:53;;;;;;;2.90;2.70;;;18.00;67.40;19.10;101505.00;;;;4985272;28;20188;-46
2022/10/04 01:43:26;;;;;;;2.97;2.77;;;18.10;67.40;19.10;101500.00;;;;4968747;28;20180;-45
2022/10/04 01:45:57;;;;;;;2.80;2.60;;;18.00;67.30;19.00;101417.00;;;;4968871;28;20208;-45
2022/10/04 01:48:25;;;;;;;2.87;2.67;;;18.00;67.40;19.00;101489.00;;;;4985499;28;20242;-44
2022/10/04 01:51:18;;;;;;;2.70;2.50;;;18.00;67.40;19.00;101483.00;;;;4985180;28;20192;-47
2022/10/04 01:54:03;;;;;;;2.77;2.57;;;18.00;67.50;19.00;101477.00;;;;4984901;28;20646;-46
2022/10/04 01:56:33;;;;;;;2.90;2.60;;;18.00;67.40;19.00;101481.00;;;;4984663;28;20270;-47
2022/10/04 01:59:02;;;;;;;2.87;2.67;;;18.00;67.50;18.80;101470.00;;;;4969442;28;20166;-47
2022/10/04 02:01:38;;;;;;;2.70;2.50;;;18.00;67.40;19.00;101463.00;;;;4985415;28;20190;-47
2022/10/04 02:04:18;;;;;;;2.80;2.60;;;18.00;67.40;19.00;101466.00;;;;4984384;28;20759;-47
2022/10/04 02:06:46;;;;;;;3.00;2.80;;;18.00;67.30;19.00;101471.00;;;;4984667;28;20290;-47
2022/10/04 02:09:21;;;;;;;2.90;2.70;;;17.90;67.20;19.00;101478.00;;;;4968452;28;20173;-46
2022/10/04 02:11:51;;;;;;;3.27;2.97;;;17.90;67.20;19.00;101478.00;;;;4984151;28;20168;-46
2022/10/04 02:14:20;;;;;;;2.70;2.50;;;17.90;67.20;19.00;101459.00;;;;4984213;28;20251;-46
2022/10/04 02:16:47;;;;;;;2.70;2.50;;;17.90;67.20;19.00;101487.00;;;;4984557;28;20205;-44
2022/10/04 02:19:13;;;;;;;3.00;2.70;;;17.90;67.30;19.00;101479.00;;;;4984806;28;20288;-46
2022/10/04 02:21:39;;;;;;;2.70;2.50;;;17.90;67.30;18.90;101475.00;;;;4985073;28;20648;-47
2022/10/04 02:24:05;;;;;;;3.17;2.87;;;17.90;67.30;19.00;101468.00;;;;4969795;28;20199;-46
2022/10/04 02:26:31;;;;;;;2.90;2.70;;;17.90;67.30;18.90;101462.00;;;;4952504;28;20214;-44
2022/10/04 02:28:56;;;;;;;2.80;2.60;;;17.80;67.20;18.90;101456.00;;;;4969641;28;20173;-48
2022/10/04 02:34:06;;;;;;;2.97;2.50;;;17.80;67.20;18.90;101467.00;;;;4968846;28;20179;-48
2022/10/04 02:36:32;;;;;;;2.70;2.50;;;17.90;67.70;18.90;101457.00;;;;4969045;28;20196;-45
2022/10/04 02:38:59;;;;;;;2.83;2.50;;;17.80;67.80;18.90;101454.00;;;;4952222;28;20181;-46
2022/10/04 02:41:53;;;;;;;2.60;2.40;;;17.80;67.80;18.90;101448.00;;;;4968873;28;20800;-46
2022/10/04 02:44:35;;;;;;;2.70;2.50;;;17.80;68.60;18.90;101449.00;;;;4967889;28;20275;-46
2022/10/04 02:47:20;;;;;;;3.00;2.80;;;17.80;67.80;18.90;101443.00;;;;4968513;28;20681;-46
2022/10/04 02:49:51;;;;;;;2.80;2.60;;;17.80;67.80;18.80;101439.00;;;;4968566;28;20188;-46
2022/10/04 02:52:24;;;;;;;2.90;2.43;;;17.80;67.70;18.80;101438.00;;;;4968233;28;20165;-46
2022/10/04 02:55:01;;;;;;;2.70;2.50;;;17.80;67.80;18.80;101427.00;;;;4969367;28;20626;-47
2022/10/04 02:57:28;;;;;;;2.57;2.37;;;17.80;67.80;18.80;101423.00;;;;4968236;28;20205;-46
2022/10/04 03:00:26;;;;;;;2.67;2.47;;;17.80;67.80;18.80;101415.00;;;;4968586;28;20671;-47
2022/10/04 03:03:15;;;;;;;2.70;2.50;;;17.70;67.60;18.80;101425.00;;;;4968214;28;20192;-45
2022/10/04 03:05:41;;;;;;;2.80;2.60;;;17.80;67.80;18.80;101415.00;;;;4969356;28;20290;-45
2022/10/04 03:08:07;;;;;;;2.70;2.50;;;17.70;67.60;18.80;101402.00;;;;4969483;28;20236;-46
2022/10/04 03:10:34;;;;;;;2.70;2.50;;;17.70;67.60;18.80;101408.00;;;;4968036;28;20176;-45
2022/10/04 03:13:00;;;;;;;2.57;2.37;;;17.70;67.60;18.80;101415.00;;;;4952213;28;20209;-45
2022/10/04 03:15:26;;;;;;;3.17;2.87;;;17.70;67.70;18.80;101406.00;;;;4967763;28;20275;-47
2022/10/04 03:17:52;;;;;;;2.60;2.40;;;17.70;67.70;18.80;101403.00;;;;4967984;28;20225;-46
2022/10/04 03:20:20;;;;;;;2.80;2.60;;;17.70;67.70;18.70;101400.00;;;;4969166;28;20184;-47
2022/10/04 03:22:47;;;;;;;2.77;2.57;;;17.70;67.60;18.70;101395.00;;;;4969087;28;20229;-47
2022/10/04 03:25:20;;;;;;;2.50;2.30;;;17.70;67.60;18.70;101390.00;;;;4968088;28;20739;-45
2022/10/04 03:27:46;;;;;;;4.77;2.80;;;17.60;67.60;18.70;101388.00;;;;4968218;28;20196;-46
2022/10/04 03:30:13;;;;;;;3.90;2.50;;;17.60;67.60;18.70;101391.00;;;;4968110;28;20208;-48
2022/10/04 03:32:39;;;;;;;4.53;2.50;;;17.60;67.70;18.50;101390.00;;;;4967814;28;20176;-46
2022/10/04 03:35:07;;;;;;;3.47;2.50;;;17.70;67.80;18.70;101402.00;;;;4951488;28;20236;-44
2022/10/04 03:37:36;;;;;;;3.00;2.57;;;17.60;67.60;18.70;101395.00;;;;4967834;28;20184;-45
2022/10/04 03:40:02;;;;;;;3.13;2.40;;;17.60;67.50;18.70;101401.00;;;;4958610;28;20195;-45
2022/10/04 03:42:33;;;;;;;2.57;2.37;;;17.60;67.50;18.70;101398.00;;;;4964957;28;20200;-45
2022/10/04 03:45:14;;;;;;;3.10;2.60;;;17.60;67.40;18.70;101392.00;;;;4963770;28;20201;-44
2022/10/04 03:47:43;;;;;;;3.50;2.40;;;17.60;67.40;18.70;101391.00;;;;4964573;28;20268;-47
2022/10/04 03:50:32;;;;;;;5.87;2.60;;;17.60;67.40;18.70;101397.00;;;;4965129;28;20520;-46
2022/10/04 03:53:20;;;;;;;5.37;2.70;;;17.60;67.30;18.70;101379.00;;;;4965047;28;20574;-45
2022/10/04 03:55:46;;;;;;;2.50;2.30;;;17.60;67.20;18.70;101355.00;;;;4965312;28;20208;-46
2022/10/04 03:58:14;;;;;;;3.47;2.60;;;17.60;67.30;18.70;101378.00;;;;4952193;28;20186;-47
2022/10/04 04:00:59;;;;;;;5.53;2.70;;;17.60;67.20;18.70;101368.00;;;;4967713;28;20177;-46
2022/10/04 04:03:25;;;;;;;6.33;2.63;;;17.60;67.00;18.60;101373.00;;;;4966880;28;20172;-45
2022/10/04 04:05:53;;;;;;;7.67;2.70;;;17.70;67.10;18.70;101374.00;;;;4968037;28;20715;-47
2022/10/04 04:08:32;;;;;;;5.33;2.63;;;17.60;67.00;18.70;101359.00;;;;4968264;28;20185;-45
2022/10/04 04:10:58;;;;;;;5.97;2.60;;;17.60;67.00;18.70;101374.00;;;;4952253;29;20181;-47
2022/10/04 04:13:45;;;;;;;7.33;2.80;;;17.60;67.10;18.70;101375.00;;;;4967482;28;20188;-47
2022/10/04 04:16:11;;;;;;;3.47;2.60;;;17.60;67.20;18.60;101376.00;;;;4968235;28;20679;-47
2022/10/04 04:18:39;;;;;;;6.80;2.40;;;17.50;67.00;18.70;101382.00;;;;4967966;28;20180;-46
2022/10/04 04:21:06;;;;;;;5.90;2.53;;;17.60;67.30;18.60;101371.00;;;;4968660;28;20187;-45
2022/10/04 04:23:38;;;;;;;4.23;2.70;;;17.50;67.20;18.60;101378.00;;;;4966719;28;20306;-46
2022/10/04 04:26:27;;;;;;;6.27;2.67;;;17.50;67.30;18.60;101385.00;;;;4967347;28;20205;-45
2022/10/04 04:29:46;;;;;;;5.73;2.80;;;17.50;67.20;18.60;101378.00;;;;4951235;29;20182;-46
2022/10/04 04:32:24;;;;;;;4.43;2.87;;;17.50;67.30;18.60;101374.00;;;;4952349;28;20178;-45
2022/10/04 04:34:52;;;;;;;5.33;2.57;;;17.50;67.30;18.60;101371.00;;;;4965762;28;20168;-46
2022/10/04 04:37:18;;;;;;;5.27;2.37;;;17.50;67.30;18.60;101375.00;;;;4953070;29;20217;-46
2022/10/04 04:39:48;;;;;;;3.03;2.57;;;17.50;67.40;18.60;101387.00;;;;4952497;29;20183;-44
2022/10/04 04:42:17;;;;;;;3.37;2.43;;;17.50;67.20;18.60;101383.00;;;;4952638;29;20178;-46
2022/10/04 04:45:13;;;;;;;5.13;2.60;;;17.50;67.20;18.60;101387.00;;;;4967017;28;20415;-45
2022/10/04 04:47:50;;;;;;;4.77;2.40;;;17.50;67.30;18.50;101357.00;;;;4964825;28;20211;-47
2022/10/04 04:50:22;;;;;;;5.27;2.47;;;17.50;67.30;18.50;101373.00;;;;4967366;28;20550;-47
2022/10/04 04:53:03;;;;;;;3.27;2.50;;;17.50;67.30;18.50;101366.00;;;;4967056;28;20175;-45
2022/10/04 04:55:40;;;;;;;6.07;2.73;;;17.50;67.30;18.50;101374.00;;;;4950619;29;20248;-45
2022/10/04 04:58:06;;;;;;;2.67;2.43;;;17.50;67.20;18.50;101364.00;;;;4965558;28;20196;-45
2022/10/04 05:00:36;;;;;;;2.50;2.30;;;17.50;67.20;18.50;101352.00;;;;4950157;29;20451;-45
2022/10/04 05:03:07;;;;;;;2.57;2.37;;;17.50;67.20;18.50;101352.00;;;;4964811;28;20222;-47
2022/10/04 05:05:34;;;;;;;3.50;2.50;;;17.50;67.30;18.50;101344.00;;;;4964271;28;20253;-47
2022/10/04 05:08:29;;;;;;;2.73;2.33;;;17.50;67.30;18.50;101347.00;;;;4950183;29;20185;-44
2022/10/04 05:11:07;;;;;;;4.13;2.70;;;17.50;67.40;18.50;101347.00;;;;4949818;28;20194;-45
2022/10/04 05:13:54;;;;;;;3.40;2.40;;;17.40;67.30;18.50;101355.00;;;;4965949;28;20162;-46
2022/10/04 05:16:30;;;;;;;3.10;2.50;;;17.40;67.30;18.40;101341.00;;;;4965322;28;20208;-45
2022/10/04 05:19:01;;;;;;;2.80;2.50;;;17.40;67.40;18.40;101345.00;;;;4950890;29;20250;-45
2022/10/04 05:21:31;;;;;;;2.30;2.10;;;17.40;67.40;18.40;101330.00;;;;4966746;28;20693;-47
2022/10/04 05:24:05;;;;;;;2.60;2.40;;;17.40;67.40;18.40;101345.00;;;;4965742;28;20703;-47
2022/10/04 05:26:30;;;;;;;2.70;2.40;;;17.40;67.40;18.40;101339.00;;;;4965454;28;20247;-46
2022/10/04 05:29:00;;;;;;;2.67;2.20;;;17.40;67.40;18.40;101327.00;;;;4966190;28;20202;-47
2022/10/04 05:31:45;;;;;;;2.40;2.20;;;17.40;67.40;18.40;101333.00;;;;4966045;28;20615;-45
2022/10/04 05:34:26;;;;;;;2.60;2.30;;;17.30;67.20;18.40;101334.00;;;;4965404;28;20254;-47
2022/10/04 05:37:18;;;;;;;2.57;2.37;;;17.40;67.40;18.40;101330.00;;;;4966318;28;20205;-46
2022/10/04 05:40:02;;;;;;;2.73;2.47;;;17.30;67.30;18.40;101336.00;;;;4965246;28;20178;-47
2022/10/04 05:42:38;;;;;;;2.57;2.37;;;17.30;67.50;18.40;101304.00;;;;4964270;28;20553;-46
2022/10/04 05:45:22;;;;;;;2.37;2.17;;;17.30;67.40;18.30;101339.00;;;;4966428;28;20261;-46
2022/10/04 05:47:50;;;;;;;2.63;2.43;;;17.30;67.40;18.30;101334.00;;;;4966516;28;20226;-46
2022/10/04 05:50:39;;;;;;;2.60;2.40;;;17.30;67.40;18.30;101334.00;;;;4966565;28;20202;-45
2022/10/04 05:53:30;;;;;;;3.97;2.40;;;17.30;67.40;18.30;101341.00;;;;4963880;28;20587;-47
2022/10/04 05:56:20;;;;;;;2.50;2.30;;;17.30;67.40;18.30;101334.00;;;;4951089;28;20252;-45
2022/10/04 05:59:21;;;;;;;2.50;2.30;;;17.30;67.40;18.30;101332.00;;;;4951107;28;20631;-45
2022/10/04 06:02:42;;;;;;;2.60;2.17;;;17.30;67.40;18.30;101317.00;;;;4965964;28;20686;-45
2022/10/04 06:05:18;;;;;;;2.50;2.30;;;17.30;67.30;18.30;101333.00;;;;4963610;28;20201;-44
2022/10/04 06:08:40;;;;;;;2.43;2.23;;;17.30;67.40;18.30;101331.00;;;;4966415;28;20450;-47
2022/10/04 06:11:40;;;;;;;2.30;2.10;;;17.30;67.20;18.30;101327.00;;;;4950884;29;20174;-46
2022/10/04 06:14:49;;;;;;;2.30;2.10;;;17.20;67.10;18.20;101335.00;;;;4920374;29;20195;-47
2022/10/04 06:17:47;;;;;;;3.03;2.20;;;17.20;67.10;18.20;101345.00;;;;4909803;29;20180;-46
2022/10/04 06:21:09;;;;;;;2.50;2.30;;;17.20;67.20;18.20;101344.00;;;;4942687;29;20186;-46
2022/10/04 06:23:43;;;;;;;2.27;2.10;;;17.20;67.20;18.20;101342.00;;;;4950036;29;20185;-46
2022/10/04 06:26:12;;;;;;;2.97;2.30;;;17.20;67.20;18.20;101334.00;;;;4950888;28;20253;-45
2022/10/04 06:28:59;;;;;;;2.50;2.30;;;17.20;67.20;18.20;101338.00;;;;4965586;28;20205;-46
2022/10/04 06:31:58;;;;;;;2.30;2.10;;;17.20;67.20;18.20;101344.00;;;;4969124;28;20685;-46
2022/10/04 06:34:58;;;;;;;2.50;2.30;;;17.20;67.30;18.20;101351.00;;;;4969643;28;20190;-46
2022/10/04 06:38:01;;;;;;;2.77;2.30;;;17.10;67.30;18.20;101349.00;;;;4968689;28;20186;-45
2022/10/04 06:40:58;;;;;;;2.30;2.10;;;17.10;67.30;18.10;101342.00;;;;4971661;28;20507;-46
2022/10/04 06:43:41;;;;;;;2.20;2.10;;;17.20;67.30;18.20;101340.00;;;;4969336;28;20353;-46
2022/10/04 06:46:32;;;;;;;2.57;2.37;;;17.20;67.60;18.20;101327.00;;;;4969993;28;20420;-45
2022/10/04 06:50:14;;;;;;;2.60;2.40;;;17.20;67.60;18.10;101337.00;;;;4962891;28;20185;-46
2022/10/04 06:53:20;;;;;;;3.07;2.40;;;17.20;67.80;18.10;101338.00;;;;4928416;29;20230;-46
2022/10/04 06:55:54;;;;;;;3.47;2.57;;;17.10;67.80;18.10;101333.00;;;;4928283;29;20725;-46
2022/10/04 06:58:52;;;;;;;3.30;2.50;;;17.10;67.90;18.10;101333.00;;;;4969632;28;20618;-47
2022/10/04 07:01:27;;;;;;;2.87;2.20;;;17.10;67.70;18.10;101336.00;;;;4969844;28;20181;-45
2022/10/04 07:04:10;;;;;;;3.10;2.10;;;17.10;67.70;18.10;101332.00;;;;4967851;28;20158;-44
2022/10/04 07:07:22;;;;;;;3.67;2.50;;;17.10;67.60;18.10;101327.00;;;;4964918;28;20197;-45
2022/10/04 07:09:42;;;;;;;2.60;2.33;;;17.10;67.60;18.10;101328.00;;;;4935879;29;20565;-49
2022/10/04 07:12:09;;;;;;;2.67;2.47;;;17.10;67.50;18.10;101318.00;;;;4949365;29;20532;-45
2022/10/04 07:14:37;;;;;;;2.47;2.23;;;17.10;67.50;18.10;101337.00;;;;4748825;28;20377;-46
2022/10/04 07:17:28;;;;;;;2.70;2.37;;;17.10;67.50;18.10;101322.00;;;;4978189;28;20251;-47
2022/10/04 07:19:53;;;;;;;2.80;2.57;;;17.10;67.60;18.10;101332.00;;;;4969749;28;20169;-45
2022/10/04 07:22:46;;;;;;;7.60;2.40;;;17.00;67.60;18.10;101337.00;;;;4968167;28;20606;-46
2022/10/04 07:25:26;;;;;;;6.93;2.40;;;17.00;67.80;18.00;101338.00;;;;4968291;28;20195;-46
2022/10/04 07:31:33;;;;;;;6.87;2.70;;;17.00;67.90;18.00;101352.00;;;;4973500;28;20658;-46
2022/10/04 07:34:12;;;;;;;5.67;2.63;;;17.00;67.90;18.00;101335.00;;;;4972035;28;20164;-46
2022/10/04 07:36:48;;;;;;;8.33;2.70;;;17.00;68.30;18.00;101344.00;;;;4955984;28;20196;-46
2022/10/04 07:39:20;;;;;;;7.27;3.00;;;17.00;69.20;18.00;101356.00;;;;4972230;28;20287;-46
2022/10/04 07:42:00;;;;;;;6.93;2.70;;;17.00;69.60;18.00;101351.00;;;;4971720;28;20185;-46
2022/10/04 07:44:32;;;;;;;4.50;3.00;;;17.00;69.80;18.00;101355.00;;;;4956233;28;20159;-46
2022/10/04 07:47:13;;;;;;;6.03;2.90;;;17.00;69.90;18.00;101358.00;;;;4971344;28;20213;-45
2022/10/04 07:49:39;;;;;;;6.03;2.80;;;17.00;69.80;18.00;101364.00;;;;4973208;28;20533;-46
2022/10/04 07:52:47;;;;;;;10.57;3.37;;;17.00;69.90;18.00;101359.00;;;;4971854;28;20185;-47
2022/10/04 07:55:24;;;;;;;6.43;3.60;;;17.00;70.40;18.00;101377.00;;;;4950793;28;20205;-47
2022/10/04 07:58:26;;;;;;;11.57;3.37;;;17.00;70.40;18.00;101377.00;;;;4972983;28;20181;-46
2022/10/04 08:01:09;;;;;;;9.80;3.50;;;17.00;70.40;17.90;101365.00;;;;4971408;28;20539;-43
2022/10/04 08:03:57;;;;;;;13.93;3.33;;;16.90;70.40;17.90;101376.00;;;;4971828;28;20215;-46
2022/10/04 08:06:55;;;;;;;9.20;3.23;;;17.00;70.80;17.90;101362.00;;;;4972489;28;20289;-46
2022/10/04 08:09:22;;;;;;;8.90;3.13;;;17.00;70.50;17.90;101369.00;;;;4971195;28;20687;-46
2022/10/04 08:12:16;;;;;;;6.00;3.10;;;17.00;70.50;17.90;101365.00;;;;4971255;28;20264;-46
2022/10/04 08:15:34;;;;;;;7.70;3.10;;;17.00;70.40;17.90;101349.00;;;;4851154;28;20172;-46
2022/10/04 08:18:04;;;;;;;10.40;3.10;;;16.90;70.30;17.90;101361.00;;;;4967063;28;20190;-46
2022/10/04 08:20:56;;;;;;;10.67;3.00;;;16.90;70.40;17.90;101365.00;;;;4973360;28;20196;-45
2022/10/04 08:24:26;;;;;;;6.07;2.70;;;16.90;70.30;17.90;101346.00;;;;4955997;28;20200;-45
2022/10/04 08:27:00;;;;;;;6.67;2.83;;;16.90;70.30;17.80;101348.00;;;;4963614;28;20224;-46
2022/10/04 08:29:49;;;;;;;6.83;3.10;;;16.90;70.30;17.80;101350.00;;;;4972067;28;20158;-44
2022/10/04 08:32:41;;;;;;;9.77;3.00;;;16.90;70.40;17.90;101357.00;;;;4970641;28;20591;-44
2022/10/04 08:35:39;;;;;;;6.50;2.70;;;16.90;70.30;17.80;101359.00;;;;4955983;28;20253;-45
2022/10/04 08:38:25;;;;;;;9.07;3.10;;;16.90;70.40;17.80;101351.00;;;;4972667;28;20178;-47
2022/10/04 08:41:41;;;;;;;9.93;3.70;;;16.90;70.30;17.80;101349.00;;;;4972740;28;20638;-45
2022/10/04 08:44:50;;;;;;;14.70;3.57;;;16.80;70.30;17.80;101349.00;;;;4970894;28;20158;-46
2022/10/04 08:47:56;;;;;;;14.20;3.67;;;16.90;70.50;17.80;101341.00;;;;4972563;28;20189;-46
2022/10/04 08:50:54;;;;;;;21.90;3.87;;;16.90;70.30;17.80;101350.00;;;;4971072;28;20622;-46
2022/10/04 08:53:47;;;;;;;13.10;3.50;;;16.90;70.50;17.80;101360.00;;;;4956143;28;20189;-46
2022/10/04 08:56:48;;;;;;;11.53;3.30;;;16.90;70.40;17.80;101345.00;;;;4972046;28;20203;-45
2022/10/04 08:59:44;;;;;;;16.70;3.50;;;16.90;70.30;17.80;101344.00;;;;4957751;28;20161;-45
2022/10/04 09:02:40;;;;;;;11.30;3.37;;;16.80;70.20;17.80;101343.00;;;;4957928;28;20212;-46
2022/10/04 09:05:44;;;;;;;9.57;2.93;;;16.80;70.20;17.80;101346.00;;;;4957520;28;20189;-45
2022/10/04 09:08:46;;;;;;;11.93;3.23;;;16.80;70.20;17.80;101348.00;;;;4971132;28;20181;-45
2022/10/04 09:11:50;;;;;;;9.70;3.27;;;16.80;70.20;17.80;101343.00;;;;4971581;28;20186;-47
2022/10/04 09:14:30;;;;;;;8.97;3.20;;;16.90;70.30;17.80;101341.00;;;;4971670;28;20184;-46
2022/10/04 09:17:19;;;;;;;6.13;3.03;;;16.90;70.50;17.80;101346.00;;;;4971479;28;20680;-44
2022/10/04 09:19:56;;;;;;;7.63;2.97;;;16.90;70.30;17.80;101344.00;;;;4971584;28;20177;-46
2022/10/04 09:23:16;;;;;;;6.40;3.00;;;16.90;70.60;17.80;101343.00;;;;4954977;28;20157;-45
2022/10/04 09:26:09;;;;;;;7.47;2.80;;;16.90;70.30;17.70;101334.00;;;;4970085;28;20680;-46
2022/10/04 09:29:30;;;;;;;6.07;2.60;;;16.90;70.30;17.80;101321.00;;;;4970840;28;20180;-45
2022/10/04 09:32:30;;;;;;;5.63;2.90;;;16.80;70.30;17.80;101330.00;;;;4959530;28;20518;-45
2022/10/04 09:35:16;;;;;;;5.17;2.80;;;16.80;70.30;17.70;101336.00;;;;4954943;28;20162;-46
2022/10/04 09:38:04;;;;;;;3.40;2.63;;;16.90;70.40;17.80;101324.00;;;;4971474;28;20235;-45
2022/10/04 09:41:26;;;;;;;4.93;2.63;;;16.90;70.30;17.80;101324.00;;;;4970039;28;20576;-46
2022/10/04 09:44:22;;;;;;;4.43;2.80;;;16.90;70.30;17.80;101337.00;;;;4970929;28;20177;-45
2022/10/04 09:47:12;;;;;;;5.73;3.07;;;16.90;70.30;17.80;101334.00;;;;4955755;28;20291;-44
2022/10/04 09:50:08;;;;;;;4.53;2.40;;;16.90;70.30;17.80;101340.00;;;;4970176;28;20211;-47
2022/10/04 09:52:43;;;;;;;7.07;2.80;;;17.00;70.40;17.80;101324.00;;;;4960212;28;20185;-45
2022/10/04 09:55:20;;;;;;;4.33;2.50;;;16.90;70.30;17.80;101316.00;;;;4954963;28;20184;-44
2022/10/04 09:58:28;;;;;;;4.27;2.90;;;16.90;70.30;17.80;101322.00;;;;4954586;28;20188;-46
2022/10/04 10:01:15;;;;;;;7.57;2.67;;;16.90;70.40;17.80;101317.00;;;;4969905;28;20169;-46
2022/10/04 10:04:01;;;;;;;4.97;2.90;;;17.00;70.50;17.80;101317.00;;;;4970613;28;20192;-45
2022/10/04 10:06:45;;;;;;;7.80;2.83;;;16.90;70.30;17.80;101310.00;;;;4970976;28;20216;-46
2022/10/04 10:16:11;;;;;;;6.07;2.67;;;17.00;70.50;17.80;101325.00;;;;4955403;28;20205;-47
2022/10/04 10:19:04;;;;;;;4.27;2.40;;;17.00;70.60;17.80;101316.00;;;;4970683;28;20237;-48
2022/10/04 10:22:16;;;;;;;3.00;2.60;;;17.00;70.50;17.80;101313.00;;;;4970509;28;20151;-46
2022/10/04 10:25:17;;;;;;;3.73;2.60;;;17.00;70.50;17.80;101306.00;;;;4970381;28;20235;-46
2022/10/04 10:28:17;;;;;;;3.00;2.33;;;17.00;70.60;17.90;101303.00;;;;4969154;28;20212;-44
2022/10/04 10:31:22;;;;;;;5.13;2.63;;;17.00;70.60;17.90;101305.00;;;;4970473;28;20212;-45
2022/10/04 10:34:35;;;;;;;3.43;2.60;;;17.00;70.80;17.90;101289.00;;;;4969337;28;20154;-46
2022/10/04 10:37:17;;;;;;;5.20;2.77;;;17.00;70.90;17.90;101301.00;;;;4955949;28;20185;-45
2022/10/04 10:39:48;;;;;;;3.47;2.47;;;17.00;70.90;17.90;101301.00;;;;4953390;28;20257;-46
2022/10/04 10:42:26;;;;;;;4.37;2.63;;;17.00;71.00;17.90;101287.00;;;;4970169;28;20169;-45
2022/10/04 10:45:18;;;;;;;3.13;2.73;;;17.10;71.10;17.90;101285.00;;;;4970759;28;20177;-45
2022/10/04 10:48:00;;;;;;;2.57;2.37;;;17.10;71.10;17.90;101297.00;;;;4968990;28;20686;-44
2022/10/04 10:51:10;;;;;;;4.07;2.80;;;17.10;71.00;17.90;101297.00;;;;4959601;28;20189;-45
2022/10/04 10:54:06;;;;;;;3.90;2.60;;;17.10;71.00;17.90;101285.00;;;;4950579;28;20185;-44
2022/10/04 10:57:19;;;;;;;3.40;2.33;;;17.10;71.00;18.00;101289.00;;;;4950912;29;20206;-44
2022/10/04 11:00:16;;;;;;;3.70;2.60;;;17.20;71.20;18.00;101287.00;;;;4950271;29;20527;-47
2022/10/04 11:03:10;;;;;;;4.27;2.70;;;17.20;71.20;18.00;101280.00;;;;4951927;28;20201;-47
2022/10/04 11:05:48;;;;;;;3.23;2.50;;;17.20;71.20;18.00;101278.00;;;;4954981;28;20216;-47
2022/10/04 11:08:47;;;;;;;3.33;2.60;;;17.20;71.30;18.00;101269.00;;;;4953533;29;20206;-46
2022/10/04 11:11:32;;;;;;;7.07;2.80;;;17.20;71.90;18.00;101267.00;;;;4953476;29;20184;-46
2022/10/04 11:14:35;;;;;;;5.73;2.60;;;17.30;72.00;18.10;101284.00;;;;4962567;28;20176;-47
2022/10/04 11:17:26;;;;;;;4.87;2.50;;;17.30;72.30;18.10;101271.00;;;;4958976;28;20549;-46
2022/10/04 11:20:34;;;;;;;4.57;2.60;;;17.30;72.50;18.10;101272.00;;;;4972795;28;20168;-47
2022/10/04 11:23:50;;;;;;;3.67;2.40;;;17.40;72.10;18.20;101271.00;;;;4881391;28;21809;-45
2022/10/04 11:26:25;;;;;;;4.83;2.70;;;17.40;72.20;18.20;101266.00;;;;4976572;28;20219;-45
2022/10/04 11:29:22;;;;;;;3.97;2.53;;;17.40;72.20;18.20;101261.00;;;;4983716;28;20582;-45
2022/10/04 11:31:59;;;;;;;3.30;2.60;;;17.40;72.10;18.20;101253.00;;;;4987559;28;20173;-46
2022/10/04 11:35:07;;;;;;;7.30;2.60;;;17.40;72.10;18.20;101250.00;;;;4972960;28;20227;-45
2022/10/04 11:38:04;;;;;;;6.10;2.70;;;17.50;72.10;18.30;101245.00;;;;4985237;28;20189;-46
2022/10/04 11:41:02;;;;;;;5.53;2.33;;;17.50;72.10;18.40;101238.00;;;;4949213;28;20186;-45
2022/10/04 11:44:02;;;;;;;5.23;2.60;;;17.60;72.20;18.40;101236.00;;;;4953093;28;20539;-45
2022/10/04 11:46:59;;;;;;;8.23;2.77;;;17.60;72.10;18.40;101235.00;;;;4955701;28;20207;-46
2022/10/04 11:50:15;;;;;;;6.37;2.57;;;17.60;72.30;18.40;101227.00;;;;4971529;28;20173;-46
2022/10/04 11:53:02;;;;;;;5.70;2.73;;;17.60;72.20;18.40;101240.00;;;;4971645;28;20168;-45
2022/10/04 11:55:53;;;;;;;3.67;2.20;;;17.70;72.30;18.50;101231.00;;;;4972458;28;20214;-46
2022/10/04 11:58:30;;;;;;;5.17;2.60;;;17.70;72.30;18.50;101222.00;;;;4972221;28;20173;-45
2022/10/04 12:01:30;;;;;;;7.87;2.67;;;17.80;72.80;18.50;101224.00;;;;4971920;28;20221;-45
2022/10/04 12:04:20;;;;;;;4.07;2.40;;;17.80;72.40;18.50;101224.00;;;;4973226;28;20235;-46
2022/10/04 12:07:33;;;;;;;3.70;2.47;;;17.80;72.40;18.60;101236.00;;;;4970948;28;20694;-45
2022/10/04 12:10:15;;;;;;;6.33;2.50;;;17.80;72.40;18.60;101225.00;;;;4971451;28;20187;-46
2022/10/04 12:13:27;;;;;;;4.77;2.30;;;17.90;72.50;18.70;101217.00;;;;4970976;28;20172;-46